Al Kazimiyah, Iraq
Current Conditions -  °F | °C
As of 9:30 PM on Monday 20 Oct 2014 (Local Time) from ORBI Reporting Station
Few Clouds Few Clouds  
Wind Chill: 63°   Ceiling: Unl
Heat Index: 63°   Visibility: 6mi
Dew Point: 50°   Wind: 14mph
Humidity: 63%   Direction: 290°WNW
Pressure: 29.85"   Gusts: NA
Location:  33.31°N, 44.19°E
Report Text: ORBI 201830Z 29012KT 9999 FEW040 17/10 Q1011
Loading
Personal Weather Stations






























Interactive Weather Map
Tropical Storm Tracking
New forecast layout! Learn more

10-Day Weather Forecast

Advertisements
Track Severe Weather on mobile